createdAt,value
2022-12-08T00:00:33.741Z,100931.31
2022-12-08T00:03:17.278Z,100923.75
2022-12-08T00:06:15.666Z,100920.44
2022-12-08T00:09:16.677Z,100911.94
2022-12-08T00:12:00.122Z,100904.59
2022-12-08T00:14:40.901Z,100900.50
2022-12-08T00:17:21.960Z,100895.34
2022-12-08T00:20:01.784Z,100894.59
2022-12-08T00:22:41.554Z,100892.41
2022-12-08T00:25:22.198Z,100887.28
2022-12-08T00:28:02.854Z,100877.81
2022-12-08T00:30:42.602Z,100879.31
2022-12-08T00:33:24.693Z,100871.44
2022-12-08T00:36:07.824Z,100867.03
2022-12-08T00:38:48.234Z,100862.72
2022-12-08T00:41:50.056Z,100858.31
2022-12-08T00:44:30.475Z,100853.91
2022-12-08T00:47:12.725Z,100846.34
2022-12-08T00:49:53.257Z,100845.38
2022-12-08T00:52:33.135Z,100846.22
2022-12-08T00:55:15.014Z,100830.78
2022-12-08T00:57:55.917Z,100832.47
2022-12-08T01:00:35.702Z,100827.53
2022-12-08T01:03:15.526Z,100825.75
2022-12-08T01:05:55.490Z,100824.91
2022-12-08T01:08:38.839Z,100812.53
2022-12-08T01:11:21.731Z,100813.38
2022-12-08T01:14:02.874Z,100798.88
2022-12-08T01:16:44.308Z,100805.13
2022-12-08T01:19:25.658Z,100789.59
2022-12-08T01:22:09.263Z,100794.84
2022-12-08T01:24:49.966Z,100791.78
2022-12-08T01:27:28.848Z,100789.16
2022-12-08T01:30:08.852Z,100790.09
2022-12-08T01:32:49.386Z,100788.72
2022-12-08T01:35:29.202Z,100788.72
2022-12-08T01:38:09.000Z,100780.28
2022-12-08T01:40:50.449Z,100781.13
2022-12-08T01:43:43.765Z,100779.22
2022-12-08T01:46:24.672Z,100781.22
2022-12-08T01:49:06.450Z,100772.72
2022-12-08T01:51:48.114Z,100772.06
2022-12-08T01:54:32.396Z,100767.13
2022-12-08T01:57:15.665Z,100757.53
2022-12-08T01:59:58.145Z,100757.84
2022-12-08T02:02:43.231Z,100748.59
2022-12-08T02:05:24.512Z,100745.97
2022-12-08T02:08:06.723Z,100738.50
2022-12-08T02:10:50.065Z,100736.63
2022-12-08T02:13:32.608Z,100724.56
2022-12-08T02:16:13.888Z,100737.75
2022-12-08T02:19:22.533Z,100723.91
2022-12-08T02:21:59.174Z,100718.75
2022-12-08T02:24:39.797Z,100724.09
2022-12-08T02:27:23.968Z,100726.63
2022-12-08T02:30:08.007Z,100722.41
2022-12-08T02:33:02.864Z,100725.13
2022-12-08T02:35:45.699Z,100719.16
2022-12-08T02:38:28.498Z,100720.09
2022-12-08T02:41:13.134Z,100719.25
2022-12-08T02:43:58.385Z,100727.00
2022-12-08T02:46:40.771Z,100732.25
2022-12-08T02:49:20.900Z,100734.88
2022-12-08T02:52:09.391Z,100734.88
2022-12-08T02:54:50.774Z,100735.72
2022-12-08T02:57:33.069Z,100725.22
2022-12-08T03:00:16.371Z,100739.91
2022-12-08T03:03:00.284Z,100739.63
2022-12-08T03:05:45.369Z,100734.38
2022-12-08T03:08:28.909Z,100731.66
2022-12-08T03:11:10.562Z,100722.84
2022-12-08T03:13:52.854Z,100725.31
2022-12-08T03:16:34.525Z,100719.97
2022-12-08T03:19:17.380Z,100712.75
2022-12-08T03:22:02.808Z,100716.19
2022-12-08T03:24:44.468Z,100705.72
2022-12-08T03:27:24.937Z,100711.69
2022-12-08T03:30:07.185Z,100704.66
2022-12-08T03:32:48.114Z,100694.09
2022-12-08T03:35:29.568Z,100689.78
2022-12-08T03:38:12.117Z,100684.53
2022-12-08T03:41:07.106Z,100682.84
2022-12-08T03:43:48.318Z,100677.63
2022-12-08T03:49:08.566Z,100676.78
2022-12-08T03:51:49.988Z,100673.31
2022-12-08T03:54:27.965Z,100676.66
2022-12-08T03:57:07.996Z,100676.56
2022-12-08T03:59:49.801Z,100667.88
2022-12-08T04:02:32.998Z,100652.03
2022-12-08T04:05:13.802Z,100649.22
2022-12-08T04:07:53.607Z,100645.66
2022-12-08T04:10:33.491Z,100643.69
2022-12-08T04:13:13.234Z,100629.06
2022-12-08T04:15:53.112Z,100625.44
2022-12-08T04:18:34.969Z,100619.25
2022-12-08T04:21:17.991Z,100617.56
2022-12-08T04:24:01.587Z,100608.88
2022-12-08T04:26:41.866Z,100606.88
2022-12-08T04:29:21.861Z,100604.25
2022-12-08T04:32:05.439Z,100600.69
2022-12-08T04:34:46.087Z,100596.59
2022-12-08T04:37:25.873Z,100592.28
2022-12-08T04:40:06.734Z,100589.66
2022-12-08T04:42:47.398Z,100585.91
2022-12-08T04:45:28.516Z,100584.94
2022-12-08T04:48:08.555Z,100581.50
2022-12-08T04:50:49.791Z,100584.31
2022-12-08T04:53:29.583Z,100579.06
2022-12-08T04:56:14.087Z,100557.25
2022-12-08T04:58:54.186Z,100554.81
2022-12-08T05:01:37.478Z,100547.91
2022-12-08T05:04:18.374Z,100551.25
2022-12-08T05:07:00.178Z,100552.41
2022-12-08T05:09:41.213Z,100538.47
2022-12-08T05:12:23.032Z,100540.88
2022-12-08T05:15:04.278Z,100527.75
2022-12-08T05:17:45.411Z,100525.03
2022-12-08T05:20:23.285Z,100527.03
2022-12-08T05:23:05.454Z,100524.31
2022-12-08T05:25:46.505Z,100528.59
2022-12-08T05:28:44.291Z,100534.69
2022-12-08T05:31:25.580Z,100535.25
2022-12-08T05:34:08.628Z,100545.50
2022-12-08T05:36:49.669Z,100547.28
2022-12-08T05:39:31.903Z,100550.88
2022-12-08T05:42:14.497Z,100549.72
2022-12-08T05:44:55.469Z,100559.16
2022-12-08T05:47:36.297Z,100565.22
2022-12-08T05:50:16.696Z,100563.34
2022-12-08T05:52:58.557Z,100570.25
2022-12-08T05:55:39.574Z,100572.16
2022-12-08T05:58:19.961Z,100576.44
2022-12-08T06:00:58.847Z,100592.00
2022-12-08T06:03:38.924Z,100592.19
2022-12-08T06:06:18.907Z,100594.63
2022-12-08T06:09:02.489Z,100585.06
2022-12-08T06:11:43.242Z,100599.00
2022-12-08T06:14:24.522Z,100604.19
2022-12-08T06:17:04.371Z,100609.31
2022-12-08T06:19:44.156Z,100616.25
2022-12-08T06:22:23.953Z,100618.97
2022-12-08T06:25:08.492Z,100613.72
2022-12-08T06:27:49.969Z,100612.03
2022-12-08T06:30:31.818Z,100615.06
2022-12-08T06:33:14.790Z,100615.25
2022-12-08T06:35:57.813Z,100622.94
2022-12-08T06:38:43.137Z,100624.50
2022-12-08T06:41:25.457Z,100623.66
2022-12-08T06:44:04.539Z,100629.22
2022-12-08T06:46:44.645Z,100632.47
2022-12-08T06:49:24.459Z,100636.78
2022-12-08T06:52:04.366Z,100635.94
2022-12-08T06:54:45.662Z,100646.63
2022-12-08T06:57:25.710Z,100653.88
2022-12-08T07:00:07.966Z,100651.44
2022-12-08T07:02:50.364Z,100653.88
2022-12-08T07:05:31.293Z,100658.16
2022-12-08T07:08:11.204Z,100658.28
2022-12-08T07:10:54.502Z,100659.84
2022-12-08T07:13:36.643Z,100660.16
2022-12-08T07:16:18.056Z,100660.06
2022-12-08T07:18:58.375Z,100656.06
2022-12-08T07:21:40.157Z,100664.56
2022-12-08T07:24:21.408Z,100665.50
2022-12-08T07:27:02.927Z,100660.47
2022-12-08T07:29:43.969Z,100664.66
2022-12-08T07:32:25.803Z,100660.25
2022-12-08T07:35:08.739Z,100659.53
2022-12-08T07:37:49.817Z,100662.97
2022-12-08T07:40:30.641Z,100658.69
2022-12-08T07:43:11.028Z,100660.91
2022-12-08T07:45:51.144Z,100665.28
2022-12-08T07:48:32.240Z,100660.06
2022-12-08T07:51:12.743Z,100661.41
2022-12-08T07:53:54.888Z,100663.94
2022-12-08T07:56:37.467Z,100665.63
2022-12-08T07:59:17.852Z,100668.25
2022-12-08T08:02:22.376Z,100660.28
2022-12-08T08:04:59.884Z,100653.34
2022-12-08T08:07:39.771Z,100655.22
2022-12-08T08:10:20.201Z,100654.09
2022-12-08T08:13:01.065Z,100650.63
2022-12-08T08:15:42.376Z,100652.22
2022-12-08T08:18:23.694Z,100652.13
2022-12-08T08:21:22.250Z,100661.47
2022-12-08T08:24:04.191Z,100646.47
2022-12-08T08:26:42.014Z,100643.94
2022-12-08T08:29:22.194Z,100648.03
2022-12-08T08:32:01.935Z,100646.47
2022-12-08T08:34:39.998Z,100643.72
2022-12-08T08:37:20.105Z,100646.97
2022-12-08T08:40:01.560Z,100646.88
2022-12-08T08:42:44.802Z,100655.31
2022-12-08T08:45:27.855Z,100644.50
2022-12-08T08:48:08.819Z,100645.44
2022-12-08T08:50:48.657Z,100649.63
2022-12-08T08:53:30.006Z,100650.69
2022-12-08T08:56:11.032Z,100653.09
2022-12-08T08:58:52.089Z,100655.50
2022-12-08T09:01:32.991Z,100663.00
2022-12-08T09:04:14.047Z,100644.81
2022-12-08T09:06:54.807Z,100649.66
2022-12-08T09:09:35.312Z,100651.97
2022-12-08T09:12:16.659Z,100655.53
2022-12-08T09:15:17.639Z,100657.84
2022-12-08T09:17:59.695Z,100661.09
2022-12-08T09:20:40.242Z,100666.06
2022-12-08T09:23:21.525Z,100664.16
2022-12-08T09:26:01.344Z,100665.72
2022-12-08T09:28:46.160Z,100664.47
2022-12-08T09:31:27.540Z,100661.09
2022-12-08T09:34:08.744Z,100660.16
2022-12-08T09:36:49.623Z,100657.22
2022-12-08T09:39:31.043Z,100647.53
2022-12-08T09:42:13.381Z,100652.78
2022-12-08T09:44:55.191Z,100653.13
2022-12-08T09:47:38.799Z,100650.09
2022-12-08T09:50:23.645Z,100639.47
2022-12-08T09:53:07.188Z,100637.59
2022-12-08T09:55:49.105Z,100636.31
2022-12-08T09:58:30.466Z,100643.91
2022-12-08T10:01:12.871Z,100645.75
2022-12-08T10:03:54.701Z,100645.69
2022-12-08T10:06:37.743Z,100643.69
2022-12-08T10:09:23.140Z,100640.84
2022-12-08T10:12:06.546Z,100631.38
2022-12-08T10:14:48.139Z,100636.09
2022-12-08T10:17:27.427Z,100637.03
2022-12-08T10:20:12.072Z,100630.50
2022-12-08T10:22:54.290Z,100620.84
2022-12-08T10:25:38.834Z,100622.94
2022-12-08T10:28:21.320Z,100625.84
2022-12-08T10:31:23.727Z,100630.91
2022-12-08T10:34:11.378Z,100633.22
2022-12-08T10:36:53.644Z,100636.47
2022-12-08T10:39:34.904Z,100629.19
2022-12-08T10:42:19.768Z,100621.19
2022-12-08T10:45:02.087Z,100612.13
2022-12-08T10:47:45.346Z,100611.28
2022-12-08T10:50:30.825Z,100610.25
2022-12-08T10:53:15.206Z,100598.72
2022-12-08T10:56:08.688Z,100593.75
2022-12-08T10:58:49.271Z,100575.34
2022-12-08T11:01:33.326Z,100572.41
2022-12-08T11:04:14.446Z,100569.44
2022-12-08T11:06:55.183Z,100565.84
2022-12-08T11:09:38.865Z,100551.75
2022-12-08T11:12:19.639Z,100546.97
2022-12-08T11:15:03.383Z,100551.16
2022-12-08T11:17:45.715Z,100543.88
2022-12-08T11:20:27.872Z,100537.44
2022-12-08T11:23:18.456Z,100528.41
2022-12-08T11:26:03.130Z,100518.44
2022-12-08T11:28:43.879Z,100503.25
2022-12-08T11:31:26.271Z,100496.00
2022-12-08T11:34:06.914Z,100492.75
2022-12-08T11:36:48.108Z,100480.84
2022-12-08T11:39:28.214Z,100468.53
2022-12-08T11:42:12.823Z,100454.09
2022-12-08T11:44:54.447Z,100449.66
2022-12-08T11:47:37.557Z,100441.41
2022-12-08T11:50:21.005Z,100430.91
2022-12-08T11:52:59.375Z,100425.19
2022-12-08T11:55:42.664Z,100406.78
2022-12-08T11:58:27.429Z,100393.25
2022-12-08T12:01:09.618Z,100381.09
2022-12-08T12:03:53.704Z,100360.53
2022-12-08T12:06:54.130Z,100344.84
2022-12-08T12:09:40.045Z,100322.38
2022-12-08T12:12:25.261Z,100307.31
2022-12-08T12:15:15.102Z,100290.13
2022-12-08T12:17:56.027Z,100262.16
2022-12-08T12:20:36.046Z,100249.97
2022-12-08T12:23:17.755Z,100231.56
2022-12-08T12:25:59.162Z,100221.19
2022-12-08T12:28:42.900Z,100203.88
2022-12-08T12:31:26.921Z,100194.56
2022-12-08T12:34:08.493Z,100175.91
2022-12-08T12:36:53.437Z,100170.78
2022-12-08T12:39:35.632Z,100151.28
2022-12-08T12:42:29.824Z,100150.72
2022-12-08T12:45:25.275Z,100132.44
2022-12-08T12:48:20.942Z,100124.28
2022-12-08T12:51:02.059Z,100121.28
2022-12-08T12:53:54.088Z,100116.66
2022-12-08T12:56:57.356Z,100108.28
2022-12-08T12:59:45.501Z,100103.53
2022-12-08T13:02:28.508Z,100106.38
2022-12-08T13:05:10.374Z,100107.06
2022-12-08T13:07:50.235Z,100109.47
2022-12-08T13:10:31.217Z,100104.56
2022-12-08T13:13:18.233Z,100099.13
2022-12-08T13:16:12.720Z,100101.38
2022-12-08T13:18:58.774Z,100091.34
2022-12-08T13:21:40.954Z,100091.56
2022-12-08T13:24:29.724Z,100099.44
2022-12-08T13:27:30.341Z,100099.13
2022-12-08T13:30:24.956Z,100096.94
2022-12-08T13:33:17.651Z,100092.38
2022-12-08T13:36:04.460Z,100095.41
2022-12-08T13:38:45.058Z,100089.31
2022-12-08T13:41:29.696Z,100089.88
2022-12-08T13:45:18.151Z,100086.94
2022-12-08T13:47:33.418Z,100084.88
2022-12-08T13:51:24.027Z,100084.06
2022-12-08T13:59:28.050Z,100087.19
2022-12-08T14:02:15.981Z,100097.69
2022-12-08T14:07:57.770Z,100117.66
2022-12-08T14:10:41.166Z,100117.28
2022-12-08T14:13:22.111Z,100123.25
2022-12-08T14:16:03.056Z,100126.22
2022-12-08T14:18:43.285Z,100130.66
2022-12-08T14:21:23.346Z,100135.44
2022-12-08T14:24:06.674Z,100132.94
2022-12-08T14:26:48.243Z,100142.03
2022-12-08T14:29:47.732Z,100134.16
2022-12-08T14:32:28.995Z,100135.09
2022-12-08T14:35:18.914Z,100133.09
2022-12-08T14:38:01.379Z,100129.84
2022-12-08T14:40:42.031Z,100132.72
2022-12-08T14:43:25.901Z,100134.88
2022-12-08T14:46:13.842Z,100146.81
2022-12-08T14:48:56.532Z,100149.66
2022-12-08T14:51:36.993Z,100157.75
2022-12-08T14:54:16.828Z,100169.47
2022-12-08T14:57:01.233Z,100177.81
2022-12-08T14:59:41.219Z,100184.34
2022-12-08T15:02:26.554Z,100190.91
2022-12-08T15:05:11.974Z,100198.28
2022-12-08T15:07:55.226Z,100203.97
2022-12-08T15:10:39.657Z,100221.84
2022-12-08T15:13:29.863Z,100231.16
2022-12-08T15:16:22.141Z,100232.41
2022-12-08T15:19:05.206Z,100242.53
2022-12-08T15:21:46.332Z,100257.88
2022-12-08T15:24:26.192Z,100266.06
2022-12-08T15:27:07.274Z,100277.13
2022-12-08T15:29:47.206Z,100288.88
2022-12-08T15:32:28.500Z,100295.50
2022-12-08T15:35:09.101Z,100315.97
2022-12-08T15:37:47.750Z,100323.53
2022-12-08T15:40:28.179Z,100333.47
2022-12-08T15:43:10.774Z,100341.66
2022-12-08T15:46:02.512Z,100357.72
2022-12-08T15:48:43.367Z,100365.88
2022-12-08T15:51:23.151Z,100375.84
2022-12-08T15:54:03.255Z,100395.13
2022-12-08T15:57:10.505Z,100416.28
2022-12-08T15:59:46.615Z,100424.47
2022-12-08T16:02:49.186Z,100445.63
2022-12-08T16:05:44.494Z,100458.16
2022-12-08T16:08:51.800Z,100474.09
2022-12-08T16:12:06.468Z,100488.53
2022-12-08T16:17:49.155Z,100499.16
2022-12-08T16:21:05.222Z,100507.31
2022-12-08T16:23:42.863Z,100508.94
2022-12-08T16:29:27.650Z,100515.66
2022-12-08T16:32:08.798Z,100517.00
2022-12-08T16:34:50.272Z,100525.34
2022-12-08T16:37:33.447Z,100522.16
2022-12-08T16:40:14.879Z,100525.25
2022-12-08T16:42:55.952Z,100528.31
2022-12-08T16:45:44.622Z,100529.56
2022-12-08T16:48:25.176Z,100524.72
2022-12-08T16:51:10.237Z,100540.66
2022-12-08T16:53:51.175Z,100543.66
2022-12-08T16:56:32.952Z,100548.41
2022-12-08T16:59:15.913Z,100555.59
2022-12-08T17:01:56.991Z,100564.53
2022-12-08T17:04:36.776Z,100573.41
2022-12-08T17:07:16.907Z,100585.91
2022-12-08T17:09:58.195Z,100587.88
2022-12-08T17:12:39.443Z,100593.28
2022-12-08T17:15:21.476Z,100593.63
2022-12-08T17:18:02.286Z,100601.66
2022-12-08T17:20:45.563Z,100615.81
2022-12-08T17:23:26.793Z,100614.31
2022-12-08T17:26:08.229Z,100620.47
2022-12-08T17:29:00.428Z,100617.19
2022-12-08T17:31:42.359Z,100630.16
2022-12-08T17:34:23.550Z,100632.69
2022-12-08T17:37:04.797Z,100636.16
2022-12-08T17:39:44.714Z,100641.28
2022-12-08T17:42:27.043Z,100647.34
2022-12-08T17:45:08.647Z,100650.81
2022-12-08T17:47:48.902Z,100657.81
2022-12-08T17:50:30.449Z,100667.50
2022-12-08T17:53:11.935Z,100670.28
2022-12-08T17:55:54.193Z,100676.44
2022-12-08T17:58:34.535Z,100683.41
2022-12-08T18:01:16.375Z,100670.44
2022-12-08T18:03:58.627Z,100674.00
2022-12-08T18:06:40.717Z,100677.53
2022-12-08T18:09:23.825Z,100683.69
2022-12-08T18:12:04.879Z,100684.63
2022-12-08T18:14:46.398Z,100679.38
2022-12-08T18:17:27.522Z,100678.63
2022-12-08T18:20:08.275Z,100689.84
2022-12-08T18:22:48.743Z,100687.06
2022-12-08T18:25:28.530Z,100681.75
2022-12-08T18:28:09.878Z,100676.44
2022-12-08T18:30:49.892Z,100671.09
2022-12-08T18:33:31.179Z,100675.34
2022-12-08T18:36:12.024Z,100670.97
2022-12-08T18:38:52.647Z,100663.97
2022-12-08T18:41:33.794Z,100655.19
2022-12-08T18:44:13.584Z,100659.31
2022-12-08T18:46:53.394Z,100660.81
2022-12-08T18:49:33.191Z,100655.59
2022-12-08T18:52:13.083Z,100650.19
2022-12-08T18:55:10.076Z,100654.47
2022-12-08T18:57:50.253Z,100653.56
2022-12-08T19:00:30.044Z,100653.56
2022-12-08T19:03:10.113Z,100653.56
2022-12-08T19:05:51.237Z,100656.06
2022-12-08T19:08:31.658Z,100653.56
2022-12-08T19:11:19.283Z,100657.94
2022-12-08T19:14:00.278Z,100646.63
2022-12-08T19:16:40.102Z,100652.72
2022-12-08T19:19:19.924Z,100650.78
2022-12-08T19:21:57.972Z,100648.31
2022-12-08T19:24:37.929Z,100649.16
2022-12-08T19:27:19.902Z,100649.25
2022-12-08T19:30:00.744Z,100649.25
2022-12-08T19:32:43.599Z,100651.03
2022-12-08T19:35:25.601Z,100653.72
2022-12-08T19:38:06.679Z,100651.97
2022-12-08T19:41:05.651Z,100655.50
2022-12-08T19:44:04.788Z,100651.22
2022-12-08T19:46:46.223Z,100649.63
2022-12-08T19:49:27.462Z,100651.28
2022-12-08T19:52:07.507Z,100656.69
2022-12-08T19:54:48.595Z,100645.50
2022-12-08T19:57:28.384Z,100649.13
2022-12-08T20:00:09.547Z,100651.06
2022-12-08T20:02:49.798Z,100653.84
2022-12-08T20:05:33.369Z,100650.47
2022-12-08T20:08:14.174Z,100656.72
2022-12-08T20:10:58.909Z,100654.19
2022-12-08T20:13:45.404Z,100650.00
2022-12-08T20:16:28.322Z,100651.94
2022-12-08T20:19:07.477Z,100655.63
2022-12-08T20:21:48.361Z,100653.19
2022-12-08T20:24:31.158Z,100657.84
2022-12-08T20:27:11.982Z,100649.41
2022-12-08T20:29:55.449Z,100653.19
2022-12-08T20:32:36.679Z,100655.13
2022-12-08T20:35:18.012Z,100655.47
2022-12-08T20:37:59.294Z,100647.03
2022-12-08T20:40:43.987Z,100648.22
2022-12-08T20:43:25.137Z,100646.69
2022-12-08T20:46:07.862Z,100653.94
2022-12-08T20:48:48.132Z,100668.16
2022-12-08T20:51:31.977Z,100667.56
2022-12-08T20:54:12.490Z,100662.66
2022-12-08T20:56:53.917Z,100669.88
2022-12-08T20:59:35.146Z,100666.66
2022-12-08T21:02:15.072Z,100671.13
2022-12-08T21:04:56.723Z,100677.44
2022-12-08T21:07:38.291Z,100674.22
2022-12-08T21:10:19.424Z,100664.94
2022-12-08T21:13:01.787Z,100675.53
2022-12-08T21:15:42.247Z,100676.69
2022-12-08T21:18:21.530Z,100675.19
2022-12-08T21:21:04.188Z,100671.94
2022-12-08T21:23:46.689Z,100670.34
2022-12-08T21:26:27.782Z,100682.53
2022-12-08T21:29:09.702Z,100681.84
2022-12-08T21:31:48.712Z,100684.53
2022-12-08T21:34:31.469Z,100683.94
2022-12-08T21:38:41.525Z,100680.09
2022-12-08T21:41:38.095Z,100661.00
2022-12-08T21:44:19.451Z,100649.97
2022-12-08T21:47:01.763Z,100635.31
2022-12-08T21:49:41.474Z,100632.84
2022-12-08T21:52:22.478Z,100635.63
2022-12-08T21:55:02.473Z,100630.56
2022-12-08T21:57:42.150Z,100632.41
2022-12-08T22:00:23.442Z,100643.00
2022-12-08T22:03:03.553Z,100632.84
2022-12-08T22:05:41.843Z,100634.53
2022-12-08T22:08:21.280Z,100639.75
2022-12-08T22:11:14.892Z,100633.78
2022-12-08T22:13:54.190Z,100635.47
2022-12-08T22:16:34.441Z,100636.38
2022-12-08T22:19:13.921Z,100644.28
2022-12-08T22:21:54.767Z,100646.94
2022-12-08T22:24:35.172Z,100645.34
2022-12-08T22:27:15.031Z,100645.41
2022-12-08T22:29:55.233Z,100649.88
2022-12-08T22:32:36.520Z,100645.56
2022-12-08T22:35:14.979Z,100641.50
2022-12-08T22:37:57.893Z,100636.34
2022-12-08T22:40:42.339Z,100639.03
2022-12-08T22:43:22.326Z,100638.19
2022-12-08T22:46:10.023Z,100645.25
2022-12-08T22:48:55.270Z,100636.75
2022-12-08T22:51:38.174Z,100643.84
2022-12-08T22:54:17.403Z,100653.50
2022-12-08T22:56:56.709Z,100645.81
2022-12-08T22:59:37.497Z,100641.69
2022-12-08T23:02:17.951Z,100640.91
2022-12-08T23:04:58.018Z,100641.00
2022-12-08T23:07:38.339Z,100641.06
2022-12-08T23:10:18.997Z,100650.72
2022-12-08T23:13:03.567Z,100653.53
2022-12-08T23:15:43.386Z,100659.72
2022-12-08T23:18:23.167Z,100655.56
2022-12-08T23:21:06.091Z,100654.88
2022-12-08T23:23:46.178Z,100649.88
2022-12-08T23:26:27.586Z,100652.56
2022-12-08T23:29:07.211Z,100653.66
2022-12-08T23:31:48.209Z,100650.31
2022-12-08T23:34:28.661Z,100644.41
2022-12-08T23:37:07.162Z,100638.50
2022-12-08T23:39:46.449Z,100634.28
2022-12-08T23:42:29.567Z,100633.44
2022-12-08T23:45:12.633Z,100628.50
2022-12-08T23:47:55.651Z,100627.81
2022-12-08T23:50:35.273Z,100624.44
2022-12-08T23:53:15.124Z,100612.41
2022-12-08T23:56:01.306Z,100616.84
2022-12-08T23:58:40.623Z,100608.38
